< < Back
Terminal Aerodrome Forecast


Current Version              Previous Versions:   1  2  3  4  5  6  7  8  9  

Terminal Aerodrome Forecast

579
FTUS42 KTAE 061120
TAFDHN
TAF
KDHN 061120Z 0612/0712 03007KT P6SM SCT250
     FM061500 35006KT P6SM SCT040=



Latest METAR

254
SAUS70 KWBC 061100 RRB
MTRDHN
METAR KDHN 061053Z AUTO 02004KT 10SM CLR 01/M03 A3034 RMK AO2 SLP274
T00061033


USA.gov is the U.S. government's official web portal to all federal, state and local government web resources and services.